createdAt,value
2018-10-02T00:00:50.691Z,7.17
2018-10-02T00:03:18.810Z,5.87
2018-10-02T00:05:46.884Z,7.77
2018-10-02T00:08:14.916Z,4.03
2018-10-02T00:10:47.493Z,3.23
2018-10-02T00:13:21.108Z,3.73
2018-10-02T00:15:49.153Z,4.53
2018-10-02T00:18:17.233Z,5.80
2018-10-02T00:20:45.286Z,7.03
2018-10-02T00:23:13.331Z,4.10
2018-10-02T00:25:41.482Z,4.57
2018-10-02T00:28:09.637Z,4.60
2018-10-02T00:30:37.709Z,6.80
2018-10-02T00:33:05.763Z,4.10
2018-10-02T00:35:33.811Z,7.33
2018-10-02T00:38:01.862Z,6.37
2018-10-02T00:40:29.951Z,6.87
2018-10-02T00:42:58.046Z,11.40
2018-10-02T00:45:26.117Z,5.93
2018-10-02T00:47:54.155Z,4.40
2018-10-02T00:50:22.275Z,4.73
2018-10-02T00:52:50.342Z,7.00
2018-10-02T00:55:18.476Z,5.23
2018-10-02T00:57:46.623Z,5.27
2018-10-02T01:00:14.726Z,5.93
2018-10-02T01:02:42.797Z,5.43
2018-10-02T01:05:10.942Z,8.03
2018-10-02T01:07:39.039Z,7.03
2018-10-02T01:10:07.190Z,4.30
2018-10-02T01:12:35.330Z,6.57
2018-10-02T01:15:03.407Z,4.63
2018-10-02T01:17:31.465Z,4.70
2018-10-02T01:19:59.544Z,7.67
2018-10-02T01:22:27.613Z,7.37
2018-10-02T01:24:55.723Z,4.30
2018-10-02T01:27:23.775Z,6.10
2018-10-02T01:29:51.914Z,5.13
2018-10-02T01:32:19.994Z,4.77
2018-10-02T01:34:48.054Z,6.73
2018-10-02T01:37:16.101Z,5.87
2018-10-02T01:39:44.226Z,3.33
2018-10-02T01:42:12.334Z,4.67
2018-10-02T01:44:40.362Z,3.93
2018-10-02T01:47:08.453Z,5.30
2018-10-02T01:49:36.522Z,6.57
2018-10-02T01:52:04.688Z,4.23
2018-10-02T01:54:32.754Z,10.20
2018-10-02T01:57:00.847Z,5.57
2018-10-02T01:59:28.899Z,4.43
2018-10-02T02:01:57.099Z,4.23
2018-10-02T02:04:25.406Z,5.03
2018-10-02T02:06:53.493Z,4.97
2018-10-02T02:09:21.615Z,6.10
2018-10-02T02:11:49.747Z,4.07
2018-10-02T02:14:17.879Z,6.13
2018-10-02T02:16:45.963Z,4.83
2018-10-02T02:19:14.091Z,6.80
2018-10-02T02:21:42.198Z,4.97
2018-10-02T02:24:10.329Z,5.13
2018-10-02T02:26:38.415Z,8.83
2018-10-02T02:29:06.540Z,7.10
2018-10-02T02:31:34.600Z,5.33
2018-10-02T02:34:02.626Z,5.47
2018-10-02T02:36:30.711Z,5.07
2018-10-02T02:38:58.770Z,7.43
2018-10-02T02:41:26.852Z,7.03
2018-10-02T02:43:54.919Z,5.67
2018-10-02T02:46:23.057Z,4.43
2018-10-02T02:48:56.480Z,6.73
2018-10-02T02:51:29.072Z,5.10
2018-10-02T02:53:57.138Z,6.90
2018-10-02T02:56:25.323Z,5.37
2018-10-02T02:58:53.483Z,8.93
2018-10-02T03:01:21.607Z,7.73
2018-10-02T03:03:49.675Z,6.47
2018-10-02T03:06:17.747Z,6.77
2018-10-02T03:08:45.874Z,4.63
2018-10-02T03:11:14.003Z,7.27
2018-10-02T03:13:42.081Z,5.77
2018-10-02T03:16:10.354Z,5.93
2018-10-02T03:18:38.454Z,6.23
2018-10-02T03:21:06.531Z,7.90
2018-10-02T03:23:34.646Z,7.70
2018-10-02T03:26:02.690Z,6.63
2018-10-02T03:28:30.790Z,8.03
2018-10-02T03:30:58.922Z,6.43
2018-10-02T03:33:26.997Z,9.60
2018-10-02T03:35:55.092Z,10.57
2018-10-02T03:38:23.207Z,5.67
2018-10-02T03:40:51.293Z,8.30
2018-10-02T03:43:19.402Z,7.07
2018-10-02T03:45:47.561Z,11.10
2018-10-02T03:48:15.624Z,7.57
2018-10-02T03:50:43.688Z,8.47
2018-10-02T03:53:11.777Z,7.73
2018-10-02T03:55:39.863Z,13.93
2018-10-02T03:58:07.993Z,6.10
2018-10-02T04:00:36.070Z,9.03
2018-10-02T04:03:04.354Z,8.33
2018-10-02T04:05:32.462Z,8.43
2018-10-02T04:08:00.546Z,10.50
2018-10-02T04:10:28.691Z,11.10
2018-10-02T04:12:56.766Z,8.33
2018-10-02T04:15:24.862Z,7.67
2018-10-02T04:17:53.026Z,12.63
2018-10-02T04:20:21.109Z,13.73
2018-10-02T04:22:49.286Z,13.03
2018-10-02T04:25:17.336Z,10.23
2018-10-02T04:27:45.500Z,11.13
2018-10-02T04:30:13.663Z,8.70
2018-10-02T04:32:41.792Z,9.10
2018-10-02T04:35:09.892Z,12.90
2018-10-02T04:37:38.402Z,10.10
2018-10-02T04:40:06.448Z,9.33
2018-10-02T04:42:34.523Z,14.33
2018-10-02T04:45:02.602Z,10.67
2018-10-02T04:47:30.693Z,15.37
2018-10-02T04:49:58.768Z,10.13
2018-10-02T04:52:26.858Z,9.17
2018-10-02T04:54:54.992Z,10.17
2018-10-02T04:57:23.048Z,10.30
2018-10-02T04:59:51.127Z,14.80
2018-10-02T05:02:19.182Z,12.80
2018-10-02T05:04:47.326Z,15.43
2018-10-02T05:07:15.480Z,11.67
2018-10-02T05:09:43.578Z,13.67
2018-10-02T05:12:11.679Z,14.20
2018-10-02T05:14:39.768Z,11.67
2018-10-02T05:17:07.840Z,11.87
2018-10-02T05:19:35.935Z,11.80
2018-10-02T05:22:03.987Z,19.40
2018-10-02T05:24:32.084Z,11.70
2018-10-02T05:27:00.203Z,13.90
2018-10-02T05:29:28.292Z,12.93
2018-10-02T05:31:56.406Z,11.90
2018-10-02T05:34:24.485Z,14.67
2018-10-02T05:36:52.561Z,14.00
2018-10-02T05:39:20.641Z,12.03
2018-10-02T05:41:48.726Z,12.23
2018-10-02T05:44:16.814Z,14.30
2018-10-02T05:46:44.907Z,10.73
2018-10-02T05:49:12.957Z,9.27
2018-10-02T05:51:41.091Z,9.93
2018-10-02T05:54:09.196Z,10.70
2018-10-02T05:56:37.277Z,12.43
2018-10-02T05:59:05.397Z,14.93
2018-10-02T06:01:33.530Z,10.43
2018-10-02T06:04:01.644Z,13.00
2018-10-02T06:06:29.794Z,11.87
2018-10-02T06:08:57.852Z,12.07
2018-10-02T06:11:25.961Z,15.63
2018-10-02T06:13:54.040Z,13.70
2018-10-02T06:16:22.108Z,12.03
2018-10-02T06:18:50.366Z,12.80
2018-10-02T06:21:18.373Z,16.57
2018-10-02T06:23:46.477Z,9.87
2018-10-02T06:26:14.566Z,12.20
2018-10-02T06:28:42.688Z,16.63
2018-10-02T06:31:10.742Z,13.43
2018-10-02T06:33:38.813Z,8.70
2018-10-02T06:36:06.946Z,11.63
2018-10-02T06:38:35.267Z,11.77
2018-10-02T06:41:03.245Z,8.43
2018-10-02T06:43:31.347Z,11.10
2018-10-02T06:45:59.447Z,9.30
2018-10-02T06:48:27.537Z,7.17
2018-10-02T06:50:55.714Z,10.17
2018-10-02T06:53:23.740Z,12.93
2018-10-02T06:55:51.844Z,6.07
2018-10-02T06:58:19.942Z,14.20
2018-10-02T07:00:48.130Z,11.63
2018-10-02T07:03:16.303Z,6.40
2018-10-02T07:05:44.483Z,6.93
2018-10-02T07:08:12.517Z,7.60
2018-10-02T07:10:40.703Z,11.70
2018-10-02T07:13:08.838Z,9.30
2018-10-02T07:15:36.964Z,9.43
2018-10-02T07:18:05.051Z,11.73
2018-10-02T07:20:33.272Z,7.47
2018-10-02T07:23:01.284Z,5.30
2018-10-02T07:25:29.361Z,9.00
2018-10-02T07:27:57.568Z,9.10
2018-10-02T07:30:25.552Z,9.77
2018-10-02T07:32:53.716Z,10.30
2018-10-02T07:35:21.784Z,7.00
2018-10-02T07:37:49.829Z,10.73
2018-10-02T07:40:17.904Z,8.53
2018-10-02T07:42:45.972Z,10.30
2018-10-02T07:45:14.053Z,13.13
2018-10-02T07:47:42.189Z,7.70
2018-10-02T07:50:10.220Z,13.97
2018-10-02T07:52:38.283Z,9.60
2018-10-02T07:55:06.358Z,7.77
2018-10-02T07:57:34.431Z,11.63
2018-10-02T08:00:02.632Z,13.73
2018-10-02T08:02:30.731Z,9.43
2018-10-02T08:04:58.828Z,9.67
2018-10-02T08:07:26.861Z,9.43
2018-10-02T08:09:54.956Z,8.93
2018-10-02T08:12:23.167Z,10.33
2018-10-02T08:14:51.121Z,12.70
2018-10-02T08:17:19.183Z,12.67
2018-10-02T08:19:47.296Z,12.67
2018-10-02T08:22:15.326Z,9.83
2018-10-02T08:24:43.388Z,8.83
2018-10-02T08:27:11.738Z,8.27
2018-10-02T08:29:39.848Z,8.37
2018-10-02T08:32:07.852Z,11.03
2018-10-02T08:34:35.944Z,8.73
2018-10-02T08:37:04.095Z,8.93
2018-10-02T08:39:32.164Z,10.37
2018-10-02T08:42:00.338Z,14.07
2018-10-02T08:44:28.320Z,10.77
2018-10-02T08:46:56.449Z,11.03
2018-10-02T08:49:24.512Z,12.43
2018-10-02T08:51:52.843Z,10.30
2018-10-02T08:54:20.876Z,11.60
2018-10-02T08:56:48.963Z,13.73
2018-10-02T08:59:17.167Z,7.70
2018-10-02T09:01:45.246Z,7.97
2018-10-02T09:04:13.313Z,8.23
2018-10-02T09:06:41.472Z,8.50
2018-10-02T09:09:11.254Z,8.17
2018-10-02T09:11:39.311Z,12.63
2018-10-02T09:14:07.500Z,9.90
2018-10-02T09:16:35.724Z,8.37
2018-10-02T09:19:03.723Z,10.43
2018-10-02T09:21:31.818Z,9.37
2018-10-02T09:23:59.950Z,7.80
2018-10-02T09:26:27.875Z,9.80
2018-10-02T09:28:55.964Z,13.57
2018-10-02T09:31:29.665Z,9.03
2018-10-02T09:34:03.428Z,8.00
2018-10-02T09:36:37.158Z,8.43
2018-10-02T09:39:12.312Z,8.10
2018-10-02T09:41:45.808Z,11.20
2018-10-02T09:44:13.881Z,12.27
2018-10-02T09:46:41.971Z,9.93
2018-10-02T09:49:10.025Z,9.97
2018-10-02T09:51:38.143Z,8.93
2018-10-02T09:54:14.226Z,8.03
2018-10-02T09:56:43.713Z,9.97
2018-10-02T09:59:12.934Z,5.90
2018-10-02T10:01:46.500Z,6.33
2018-10-02T10:04:15.023Z,5.33
2018-10-02T10:06:43.084Z,7.30
2018-10-02T10:09:11.664Z,12.67
2018-10-02T10:11:40.202Z,6.67
2018-10-02T10:14:08.529Z,9.73
2018-10-02T10:16:36.881Z,8.83
2018-10-02T10:19:04.972Z,9.73
2018-10-02T10:21:33.166Z,9.87
2018-10-02T10:24:01.344Z,8.33
2018-10-02T10:26:29.419Z,10.33
2018-10-02T10:28:57.581Z,14.57
2018-10-02T10:31:25.592Z,8.10
2018-10-02T10:33:53.650Z,7.90
2018-10-02T10:36:21.704Z,9.43
2018-10-02T10:38:49.808Z,9.43
2018-10-02T10:41:17.870Z,13.33
2018-10-02T10:43:45.939Z,7.17
2018-10-02T10:46:13.987Z,8.57
2018-10-02T10:48:42.083Z,7.63
2018-10-02T10:51:10.179Z,5.47
2018-10-02T10:53:38.232Z,9.13
2018-10-02T10:56:06.302Z,9.53
2018-10-02T10:58:34.398Z,6.77
2018-10-02T11:01:02.622Z,6.90
2018-10-02T11:03:30.760Z,11.33
2018-10-02T11:05:58.850Z,9.63
2018-10-02T11:08:26.952Z,12.87
2018-10-02T11:10:55.084Z,10.13
2018-10-02T11:13:23.217Z,12.27
2018-10-02T11:15:51.306Z,5.10
2018-10-02T11:18:19.448Z,7.63
2018-10-02T11:20:47.561Z,11.30
2018-10-02T11:23:15.638Z,8.77
2018-10-02T11:25:43.803Z,5.77
2018-10-02T11:28:11.851Z,8.77
2018-10-02T11:30:39.895Z,6.00
2018-10-02T11:33:07.967Z,7.87
2018-10-02T11:35:36.124Z,7.67
2018-10-02T11:38:04.174Z,10.03
2018-10-02T11:40:32.268Z,8.60
2018-10-02T11:43:00.356Z,5.93
2018-10-02T11:45:28.457Z,7.37
2018-10-02T11:47:56.530Z,4.07
2018-10-02T11:50:24.645Z,4.57
2018-10-02T11:52:52.722Z,6.57
2018-10-02T11:55:20.819Z,7.57
2018-10-02T11:57:48.930Z,3.73
2018-10-02T12:00:17.047Z,5.77
2018-10-02T12:02:45.111Z,9.70
2018-10-02T12:05:13.273Z,15.97
2018-10-02T12:07:41.357Z,5.43
2018-10-02T12:10:09.471Z,5.77
2018-10-02T12:12:37.555Z,5.57
2018-10-02T12:15:05.668Z,4.63
2018-10-02T12:17:33.772Z,6.60
2018-10-02T12:20:01.926Z,6.17
2018-10-02T12:22:29.932Z,5.00
2018-10-02T12:24:58.021Z,8.00
2018-10-02T12:27:26.124Z,8.57
2018-10-02T12:29:54.240Z,6.70
2018-10-02T12:32:22.347Z,4.90
2018-10-02T12:34:50.414Z,9.73
2018-10-02T12:37:18.544Z,5.40
2018-10-02T12:39:46.619Z,6.67
2018-10-02T12:42:14.700Z,6.30
2018-10-02T12:44:42.781Z,5.83
2018-10-02T12:47:10.861Z,4.80
2018-10-02T12:49:38.975Z,3.63
2018-10-02T12:52:07.051Z,7.60
2018-10-02T12:54:35.161Z,9.73
2018-10-02T12:57:03.203Z,3.70
2018-10-02T12:59:31.298Z,7.03
2018-10-02T13:01:59.375Z,4.97
2018-10-02T13:04:27.463Z,3.40
2018-10-02T13:06:55.601Z,15.20
2018-10-02T13:09:23.710Z,8.03
2018-10-02T13:11:51.964Z,6.30
2018-10-02T13:14:20.085Z,5.70
2018-10-02T13:16:48.252Z,6.13
2018-10-02T13:19:16.244Z,5.33
2018-10-02T13:21:44.295Z,6.43
2018-10-02T13:24:12.488Z,4.07
2018-10-02T13:26:40.580Z,5.60
2018-10-02T13:29:08.724Z,9.17
2018-10-02T13:31:36.815Z,9.03
2018-10-02T13:34:04.877Z,9.40
2018-10-02T13:36:32.948Z,6.83
2018-10-02T13:39:01.004Z,4.43
2018-10-02T13:41:29.089Z,5.27
2018-10-02T13:43:57.119Z,4.90
2018-10-02T13:46:25.186Z,6.80
2018-10-02T13:48:53.324Z,6.13
2018-10-02T13:51:21.517Z,6.87
2018-10-02T13:53:49.576Z,7.97
2018-10-02T13:56:17.664Z,5.83
2018-10-02T13:58:45.737Z,5.87
2018-10-02T14:01:13.850Z,6.20
2018-10-02T14:03:41.888Z,4.43
2018-10-02T14:06:09.967Z,6.47
2018-10-02T14:08:38.144Z,7.63
2018-10-02T14:11:06.311Z,7.27
2018-10-02T14:13:34.383Z,6.40
2018-10-02T14:16:02.446Z,7.93
2018-10-02T14:18:30.536Z,6.43
2018-10-02T14:20:58.588Z,5.70
2018-10-02T14:23:26.648Z,6.87
2018-10-02T14:25:54.739Z,7.23
2018-10-02T14:28:22.853Z,6.00
2018-10-02T14:30:50.933Z,7.03
2018-10-02T14:33:19.116Z,5.67
2018-10-02T14:35:47.226Z,5.43
2018-10-02T14:38:15.298Z,7.10
2018-10-02T14:40:43.347Z,5.80
2018-10-02T14:43:11.480Z,5.37
2018-10-02T14:45:39.489Z,6.30
2018-10-02T14:48:07.604Z,6.47
2018-10-02T14:50:35.643Z,6.93
2018-10-02T14:53:03.702Z,7.93
2018-10-02T14:55:31.754Z,8.27
2018-10-02T14:57:59.848Z,6.23
2018-10-02T15:00:27.917Z,6.40
2018-10-02T15:02:55.988Z,4.63
2018-10-02T15:05:24.064Z,4.93
2018-10-02T15:07:52.201Z,5.63
2018-10-02T15:10:20.335Z,5.13
2018-10-02T15:12:48.465Z,6.30
2018-10-02T15:15:16.550Z,5.07
2018-10-02T15:17:44.727Z,5.47
2018-10-02T15:20:12.773Z,5.60
2018-10-02T15:22:40.928Z,4.53
2018-10-02T15:25:09.013Z,6.77
2018-10-02T15:27:37.058Z,5.47
2018-10-02T15:30:05.379Z,4.03
2018-10-02T15:32:33.645Z,5.17
2018-10-02T15:35:01.753Z,7.77
2018-10-02T15:37:29.987Z,11.70
2018-10-02T15:39:58.038Z,4.93
2018-10-02T15:42:26.211Z,4.97
2018-10-02T15:44:54.277Z,5.40
2018-10-02T15:47:22.335Z,4.83
2018-10-02T15:49:50.417Z,4.70
2018-10-02T15:52:18.460Z,5.23
2018-10-02T15:54:46.533Z,5.07
2018-10-02T15:57:14.580Z,4.60
2018-10-02T15:59:42.663Z,5.70
2018-10-02T16:02:10.809Z,7.33
2018-10-02T16:04:38.866Z,3.37
2018-10-02T16:07:06.976Z,6.07
2018-10-02T16:09:35.085Z,7.13
2018-10-02T16:12:03.176Z,5.30
2018-10-02T16:14:31.591Z,5.43
2018-10-02T16:16:59.784Z,6.30
2018-10-02T16:19:27.860Z,3.83
2018-10-02T16:21:55.931Z,5.07
2018-10-02T16:24:23.986Z,4.57
2018-10-02T16:26:52.084Z,5.43
2018-10-02T16:29:20.221Z,3.30
2018-10-02T16:31:48.355Z,4.97
2018-10-02T16:34:16.493Z,4.00
2018-10-02T16:36:44.638Z,4.77
2018-10-02T16:39:12.706Z,4.57
2018-10-02T16:41:40.760Z,5.63
2018-10-02T16:44:08.899Z,4.00
2018-10-02T16:46:36.986Z,3.13
2018-10-02T16:49:05.085Z,2.97
2018-10-02T16:51:33.193Z,3.33
2018-10-02T16:54:01.284Z,5.20
2018-10-02T16:56:29.373Z,5.33
2018-10-02T16:58:57.453Z,9.07
2018-10-02T17:01:25.695Z,5.53
2018-10-02T17:03:53.818Z,4.13
2018-10-02T17:06:21.884Z,4.07
2018-10-02T17:08:50.006Z,4.13
2018-10-02T17:11:18.061Z,3.53
2018-10-02T17:13:46.108Z,4.93
2018-10-02T17:16:14.196Z,3.13
2018-10-02T17:18:42.352Z,3.07
2018-10-02T17:21:10.430Z,3.27
2018-10-02T17:23:38.503Z,3.57
2018-10-02T17:26:06.793Z,3.27
2018-10-02T17:28:34.927Z,4.20
2018-10-02T17:31:03.002Z,4.50
2018-10-02T17:33:31.110Z,3.57
2018-10-02T17:35:59.218Z,4.63
2018-10-02T17:38:27.294Z,5.70
2018-10-02T17:40:55.569Z,4.57
2018-10-02T17:43:23.736Z,4.93
2018-10-02T17:45:51.921Z,4.83
2018-10-02T17:48:20.107Z,7.27
2018-10-02T17:50:48.352Z,5.80
2018-10-02T17:53:16.496Z,4.57
2018-10-02T17:55:44.654Z,4.23
2018-10-02T17:58:12.756Z,5.07
2018-10-02T18:00:40.884Z,5.37
2018-10-02T18:03:08.980Z,6.63
2018-10-02T18:05:37.450Z,4.40
2018-10-02T18:08:05.541Z,4.33
2018-10-02T18:10:33.651Z,5.30
2018-10-02T18:13:01.964Z,4.57
2018-10-02T18:15:30.174Z,4.10
2018-10-02T18:17:58.287Z,4.40
2018-10-02T18:20:26.384Z,4.43
2018-10-02T18:22:54.471Z,4.43
2018-10-02T18:25:22.580Z,5.27
2018-10-02T18:27:50.761Z,4.37
2018-10-02T18:30:19.059Z,4.20
2018-10-02T18:32:47.338Z,5.70
2018-10-02T18:35:15.487Z,6.30
2018-10-02T18:37:43.550Z,5.17
2018-10-02T18:40:12.522Z,6.07
2018-10-02T18:42:40.600Z,8.53
2018-10-02T18:45:08.765Z,9.33
2018-10-02T18:47:36.826Z,11.23
2018-10-02T18:50:04.955Z,10.23
2018-10-02T18:52:33.070Z,11.10
2018-10-02T18:55:01.208Z,12.60
2018-10-02T18:57:29.359Z,11.93
2018-10-02T18:59:57.459Z,11.83
2018-10-02T19:02:25.725Z,12.77
2018-10-02T19:04:54.047Z,12.97
2018-10-02T19:07:22.224Z,15.47
2018-10-02T19:09:50.330Z,14.30
2018-10-02T19:12:19.804Z,15.33
2018-10-02T19:14:47.987Z,15.70
2018-10-02T19:17:16.267Z,16.03
2018-10-02T19:19:49.601Z,15.63
2018-10-02T19:22:17.820Z,16.80
2018-10-02T19:24:45.960Z,16.43
2018-10-02T19:27:14.080Z,17.80
2018-10-02T19:29:42.200Z,18.20
2018-10-02T19:32:13.197Z,17.50
2018-10-02T19:34:41.268Z,17.77
2018-10-02T19:37:14.681Z,16.13
2018-10-02T19:39:42.954Z,15.00
2018-10-02T19:42:11.230Z,14.20
2018-10-02T19:44:39.864Z,18.77
2018-10-02T19:47:07.929Z,13.97
2018-10-02T19:49:36.559Z,13.33
2018-10-02T19:52:11.428Z,14.53
2018-10-02T19:54:39.496Z,13.33
2018-10-02T19:57:08.827Z,16.50
2018-10-02T19:59:36.922Z,14.07
2018-10-02T20:02:05.029Z,13.57
2018-10-02T20:04:33.119Z,12.33
2018-10-02T20:07:01.248Z,12.70
2018-10-02T20:09:29.326Z,13.43
2018-10-02T20:11:57.426Z,14.53
2018-10-02T20:14:25.533Z,9.80
2018-10-02T20:16:53.669Z,10.50
2018-10-02T20:19:21.850Z,11.63
2018-10-02T20:21:49.984Z,11.50
2018-10-02T20:24:24.667Z,14.93
2018-10-02T20:26:52.817Z,18.43
2018-10-02T20:29:20.946Z,15.13
2018-10-02T20:31:50.502Z,16.07
2018-10-02T20:34:18.623Z,14.07
2018-10-02T20:36:46.949Z,16.07
2018-10-02T20:39:14.995Z,19.53
2018-10-02T20:41:43.117Z,15.43
2018-10-02T20:44:11.220Z,18.77
2018-10-02T20:46:39.298Z,15.33
2018-10-02T20:49:07.418Z,14.50
2018-10-02T20:51:35.516Z,12.20
2018-10-02T20:54:03.597Z,13.03
2018-10-02T20:56:31.723Z,11.00
2018-10-02T20:58:59.941Z,10.80
2018-10-02T21:01:28.325Z,14.30
2018-10-02T21:03:56.507Z,10.17
2018-10-02T21:06:24.767Z,15.63
2018-10-02T21:08:52.819Z,15.50
2018-10-02T21:11:20.939Z,14.70
2018-10-02T21:13:49.005Z,9.77
2018-10-02T21:16:17.092Z,14.67
2018-10-02T21:18:45.154Z,14.60
2018-10-02T21:21:13.296Z,11.83
2018-10-02T21:23:41.416Z,11.93
2018-10-02T21:26:09.510Z,16.20
2018-10-02T21:28:37.728Z,15.33
2018-10-02T21:31:06.053Z,10.90
2018-10-02T21:33:34.139Z,18.43
2018-10-02T21:36:02.198Z,13.63
2018-10-02T21:38:30.282Z,10.77
2018-10-02T21:40:58.405Z,20.50
2018-10-02T21:43:26.506Z,11.03
2018-10-02T21:45:54.581Z,14.67
2018-10-02T21:48:22.722Z,14.87
2018-10-02T21:50:50.820Z,13.13
2018-10-02T21:53:18.991Z,11.07
2018-10-02T21:55:47.055Z,14.27
2018-10-02T21:58:15.237Z,12.27
2018-10-02T22:00:43.297Z,15.17
2018-10-02T22:03:11.379Z,13.90
2018-10-02T22:05:39.443Z,12.27
2018-10-02T22:08:07.644Z,12.73
2018-10-02T22:10:35.743Z,13.17
2018-10-02T22:13:03.875Z,14.17
2018-10-02T22:15:32.051Z,13.23
2018-10-02T22:18:00.184Z,15.73
2018-10-02T22:20:28.290Z,14.13
2018-10-02T22:22:56.457Z,15.87
2018-10-02T22:25:24.537Z,12.97
2018-10-02T22:27:52.824Z,16.63
2018-10-02T22:30:20.897Z,16.67
2018-10-02T22:32:49.016Z,13.17
2018-10-02T22:35:17.129Z,16.53
2018-10-02T22:37:45.237Z,17.90
2018-10-02T22:40:13.453Z,15.33
2018-10-02T22:42:41.484Z,16.50
2018-10-02T22:45:09.583Z,14.00
2018-10-02T22:47:37.663Z,11.60
2018-10-02T22:50:05.774Z,13.33
2018-10-02T22:52:33.850Z,20.67
2018-10-02T22:55:01.900Z,12.77
2018-10-02T22:57:29.991Z,13.33
2018-10-02T22:59:58.115Z,21.37
2018-10-02T23:02:26.201Z,12.73
2018-10-02T23:04:54.276Z,15.97
2018-10-02T23:07:22.403Z,15.93
2018-10-02T23:09:50.500Z,16.73
2018-10-02T23:12:18.627Z,16.23
2018-10-02T23:14:46.761Z,14.77
2018-10-02T23:17:14.876Z,15.10
2018-10-02T23:19:43.001Z,14.50
2018-10-02T23:22:11.111Z,15.93
2018-10-02T23:24:39.229Z,20.23
2018-10-02T23:27:07.287Z,15.70
2018-10-02T23:29:35.386Z,15.07
2018-10-02T23:32:03.456Z,17.17
2018-10-02T23:34:31.565Z,14.77
2018-10-02T23:36:59.747Z,15.13
2018-10-02T23:39:27.981Z,21.50
2018-10-02T23:41:56.094Z,17.50
2018-10-02T23:44:24.189Z,18.60
2018-10-02T23:46:52.273Z,18.33
2018-10-02T23:49:20.384Z,14.90
2018-10-02T23:51:48.496Z,13.47
2018-10-02T23:54:16.786Z,15.73
2018-10-02T23:56:44.876Z,19.03
2018-10-02T23:59:13.002Z,17.97
